Time;durP1;ratioP1;P1;durP2;ratioP2;P2;SDS_P1;SDS_P2;PMS_P1;PMS_P2;Temp;Humidity;BMP_temperature;BMP_pressure;BME280_temperature;BME280_humidity;BME280_pressure;Samples;Min_cycle;Max_cycle;Signal;HPM_P1;HPM_P2
2023/01/08 00:00:51;;;;;;;5.93;1.10;;;;;;;13.45;58.44;101095.78;5032222;28;20025;-58
2023/01/08 00:03:17;;;;;;;6.53;2.03;;;;;;;13.29;61.22;101101.69;5028985;28;20446;-58
2023/01/08 00:05:43;;;;;;;5.40;1.27;;;;;;;13.08;62.94;101102.00;5033038;28;20037;-58
2023/01/08 00:08:10;;;;;;;3.95;2.15;;;;;;;13.08;63.47;101107.38;5031588;28;20028;-58
2023/01/08 00:10:38;;;;;;;9.45;1.95;;;;;;;13.11;64.15;101106.94;5033161;28;20539;-58
2023/01/08 00:13:05;;;;;;;9.70;2.22;;;;;;;12.95;65.08;101108.28;5032236;28;20048;-58
2023/01/08 00:15:35;;;;;;;4.82;1.60;;;;;;;12.85;65.38;101100.66;5033113;28;20059;-58
2023/01/08 00:18:01;;;;;;;7.22;1.50;;;;;;;12.66;66.29;101102.41;5031286;28;20116;-58
2023/01/08 00:20:28;;;;;;;5.10;1.48;;;;;;;12.58;66.56;101101.81;5028263;28;20057;-58
2023/01/08 00:22:54;;;;;;;6.72;1.48;;;;;;;12.40;67.15;101105.19;5013287;28;20112;-58
2023/01/08 00:25:20;;;;;;;12.85;2.22;;;;;;;12.42;66.01;101112.00;5020853;28;20108;-58
2023/01/08 00:27:46;;;;;;;10.63;2.08;;;;;;;12.17;67.36;101116.41;5021020;28;20029;-58
2023/01/08 00:30:13;;;;;;;4.45;1.60;;;;;;;11.96;68.62;101122.84;5032358;28;20079;-58
2023/01/08 00:32:39;;;;;;;8.32;1.67;;;;;;;11.96;68.11;101104.06;5019609;28;20033;-58
2023/01/08 00:35:06;;;;;;;5.68;1.20;;;;;;;11.80;68.45;101109.81;5031922;28;20029;-58
2023/01/08 00:37:32;;;;;;;5.03;1.25;;;;;;;11.66;69.60;101103.66;5032382;28;20030;-58
2023/01/08 00:39:58;;;;;;;3.92;1.67;;;;;;;11.71;69.08;101109.19;5031685;28;20022;-58
2023/01/08 00:42:24;;;;;;;5.60;1.58;;;;;;;11.49;70.66;101103.25;5032069;28;20032;-58
2023/01/08 00:44:51;;;;;;;5.60;1.27;;;;;;;11.28;70.15;101112.28;5014661;28;20026;-58
2023/01/08 00:47:17;;;;;;;8.65;1.42;;;;;;;11.11;70.41;101089.59;5030074;28;20084;-58
2023/01/08 00:49:43;;;;;;;4.53;1.13;;;;;;;11.10;71.98;101077.19;5032367;28;20036;-58
2023/01/08 00:52:11;;;;;;;5.07;1.38;;;;;;;10.98;71.87;101054.72;5030939;28;20068;-57
2023/01/08 00:54:37;;;;;;;6.55;1.70;;;;;;;10.89;71.25;101055.94;5032164;28;20072;-58
2023/01/08 00:57:03;;;;;;;6.07;1.52;;;;;;;10.92;71.64;101026.06;5030220;28;20121;-58
2023/01/08 00:59:29;;;;;;;4.68;1.60;;;;;;;10.89;71.49;101045.25;5032045;28;20017;-57
2023/01/08 01:01:55;;;;;;;4.80;1.30;;;;;;;10.84;72.01;101033.28;5025716;28;20065;-57
2023/01/08 01:04:22;;;;;;;5.40;1.67;;;;;;;10.86;72.40;101040.28;5012377;28;20164;-57
2023/01/08 01:06:48;;;;;;;8.32;1.63;;;;;;;10.78;72.93;101023.38;5025606;28;20032;-57
2023/01/08 01:09:14;;;;;;;5.60;2.30;;;;;;;10.83;73.02;101020.09;5016790;28;20133;-58
2023/01/08 01:11:41;;;;;;;7.00;1.55;;;;;;;10.77;73.76;101012.84;5011889;28;20037;-57
2023/01/08 01:14:08;;;;;;;4.53;1.60;;;;;;;10.76;74.27;100993.28;5025845;28;20045;-57
2023/01/08 01:16:35;;;;;;;3.60;1.40;;;;;;;10.62;74.15;100946.13;5032035;28;20026;-57
2023/01/08 01:19:01;;;;;;;5.40;1.70;;;;;;;10.50;74.41;100911.09;5027627;28;20057;-56
2023/01/08 01:21:30;;;;;;;7.32;1.73;;;;;;;10.48;75.93;100877.53;5021979;28;20029;-57
2023/01/08 01:23:59;;;;;;;4.85;1.80;;;;;;;10.53;74.70;100849.13;5022962;28;20094;-57
2023/01/08 01:26:26;;;;;;;5.80;1.30;;;;;;;10.38;75.36;100853.03;5012856;28;20026;-57
2023/01/08 01:28:54;;;;;;;5.22;1.90;;;;;;;10.44;76.26;100897.72;5020272;28;20069;-57
2023/01/08 01:31:21;;;;;;;5.53;1.27;;;;;;;10.39;76.56;100894.84;5011164;28;20109;-57
2023/01/08 01:33:49;;;;;;;5.07;1.40;;;;;;;10.42;76.68;100915.81;5026667;28;20029;-57
2023/01/08 01:36:17;;;;;;;4.68;1.77;;;;;;;10.39;76.95;100925.09;5011150;28;20030;-57
2023/01/08 01:38:45;;;;;;;6.40;1.40;;;;;;;10.36;76.46;100928.16;5020459;28;20021;-57
2023/01/08 01:41:25;;;;;;;3.10;1.10;;;;;;;10.40;76.67;100932.09;5028191;28;20505;-57
2023/01/08 01:43:52;;;;;;;3.33;1.58;;;;;;;10.45;76.38;100945.69;5022424;28;20041;-56
2023/01/08 01:46:38;;;;;;;5.10;1.35;;;;;;;10.51;76.28;100973.47;5021332;28;20475;-56
2023/01/08 01:49:15;;;;;;;5.38;1.48;;;;;;;10.49;75.85;100991.56;5031594;28;20053;-57
2023/01/08 01:51:47;;;;;;;5.30;1.50;;;;;;;10.64;74.65;100988.75;5029445;28;20033;-57
2023/01/08 01:54:13;;;;;;;4.25;1.30;;;;;;;10.65;74.12;101001.09;5031364;28;20424;-57
2023/01/08 01:56:41;;;;;;;2.47;0.85;;;;;;;10.73;73.90;100974.16;5016171;28;20030;-56
2023/01/08 01:59:07;;;;;;;5.55;1.40;;;;;;;10.65;74.20;100983.19;5011704;28;20028;-57
2023/01/08 02:01:34;;;;;;;4.15;1.48;;;;;;;10.63;73.60;100990.59;5025632;28;20041;-57
2023/01/08 02:04:00;;;;;;;2.45;0.98;;;;;;;10.64;74.46;100981.53;5030606;28;20485;-57
2023/01/08 02:06:32;;;;;;;3.03;0.98;;;;;;;10.77;73.54;101008.34;5031405;28;20570;-57
2023/01/08 02:09:24;;;;;;;2.35;0.60;;;;;;;10.87;73.67;101001.75;5031137;28;20087;-57
2023/01/08 02:14:56;;;;;;;3.60;1.02;;;;;;;10.96;73.24;101021.97;5031814;28;20308;-57
2023/01/08 02:17:38;;;;;;;1.55;0.80;;;;;;;10.87;73.28;101023.19;5031244;28;20044;-57
2023/01/08 02:20:14;;;;;;;1.95;0.85;;;;;;;10.90;73.26;101017.44;5031139;28;20053;-57
2023/01/08 02:22:58;;;;;;;2.80;0.88;;;;;;;10.90;72.76;101033.50;5031060;28;20470;-57
2023/01/08 02:25:46;;;;;;;2.60;0.93;;;;;;;10.96;73.07;101009.41;5033687;28;20440;-57
2023/01/08 02:28:14;;;;;;;4.40;1.10;;;;;;;10.91;72.84;101001.16;5020004;23;20046;-57
2023/01/08 02:30:41;;;;;;;1.88;1.05;;;;;;;10.94;73.32;101002.56;5014016;28;20056;-57
2023/01/08 02:33:08;;;;;;;1.17;0.70;;;;;;;10.99;72.51;101016.19;5014902;28;20026;-57
2023/01/08 02:35:40;;;;;;;1.05;0.90;;;;;;;10.91;72.62;101014.53;5011739;28;20068;-56
2023/01/08 02:38:12;;;;;;;1.80;0.88;;;;;;;10.98;73.17;101014.53;5014482;28;20493;-56
2023/01/08 02:40:56;;;;;;;2.47;1.10;;;;;;;10.94;72.39;101024.00;5010106;28;20104;-55
2023/01/08 02:43:41;;;;;;;3.75;0.70;;;;;;;10.99;72.13;101033.09;5014514;28;20026;-55
2023/01/08 02:46:14;;;;;;;0.85;0.80;;;;;;;11.10;72.69;101029.81;5014570;28;20025;-56
2023/01/08 02:48:51;;;;;;;1.02;0.63;;;;;;;11.04;72.07;101003.81;5004628;28;20026;-55
2023/01/08 02:51:28;;;;;;;0.88;0.38;;;;;;;11.08;71.67;100998.91;5014468;28;20067;-56
2023/01/08 02:53:59;;;;;;;0.98;0.60;;;;;;;11.13;71.91;101007.13;5014497;28;20210;-56
2023/01/08 02:56:31;;;;;;;1.30;0.55;;;;;;;11.25;71.28;100999.31;5014646;28;20052;-56
2023/01/08 02:58:58;;;;;;;1.17;0.40;;;;;;;11.22;71.32;101013.97;5003822;28;20058;-56
2023/01/08 03:01:26;;;;;;;1.50;0.80;;;;;;;11.24;71.34;101000.34;5012502;28;20044;-56
2023/01/08 03:04:19;;;;;;;2.35;0.85;;;;;;;11.32;71.28;100998.25;5002104;28;20048;-56
2023/01/08 03:06:46;;;;;;;0.70;0.50;;;;;;;11.28;71.25;100996.22;5002421;28;20026;-56
2023/01/08 03:09:13;;;;;;;1.92;0.60;;;;;;;11.32;71.42;100974.16;4992308;28;20455;-56
2023/01/08 03:11:59;;;;;;;2.13;1.08;;;;;;;11.39;71.62;100978.69;5014212;28;20026;-56
2023/01/08 03:14:47;;;;;;;2.75;1.00;;;;;;;11.33;71.70;100946.34;5014190;28;20382;-56
2023/01/08 03:17:29;;;;;;;1.45;0.80;;;;;;;11.34;71.58;100956.03;5014387;28;20037;-56
2023/01/08 03:20:02;;;;;;;1.55;0.50;;;;;;;11.42;71.35;100951.47;5002311;28;20026;-56
2023/01/08 03:22:31;;;;;;;2.17;0.80;;;;;;;11.42;71.48;100946.09;4975067;28;20535;-56
2023/01/08 03:24:58;;;;;;;2.40;0.70;;;;;;;11.48;71.54;100921.16;4975009;28;20074;-56
2023/01/08 03:27:29;;;;;;;1.52;0.65;;;;;;;11.57;71.04;100946.72;4974963;28;20043;-56
2023/01/08 03:29:58;;;;;;;2.60;0.70;;;;;;;11.49;71.24;100966.53;4975175;28;20085;-56
2023/01/08 03:32:28;;;;;;;3.50;0.90;;;;;;;11.49;71.54;100965.69;4974688;28;20054;-56
2023/01/08 03:34:57;;;;;;;1.30;0.63;;;;;;;11.42;71.73;100949.63;4974779;28;20034;-56
2023/01/08 03:37:31;;;;;;;2.08;0.68;;;;;;;11.49;71.39;100953.13;4974900;28;20030;-56
2023/01/08 03:40:09;;;;;;;2.47;0.90;;;;;;;11.56;71.19;100932.47;4974864;28;20081;-56
2023/01/08 03:42:35;;;;;;;1.55;0.82;;;;;;;11.52;71.81;100927.75;4974355;28;20089;-56
2023/01/08 03:45:02;;;;;;;1.83;0.80;;;;;;;11.55;71.05;100919.28;4974769;28;20106;-56
2023/01/08 03:47:31;;;;;;;1.02;0.70;;;;;;;11.61;70.91;100918.44;4974738;28;20023;-56
2023/01/08 03:50:02;;;;;;;2.33;0.60;;;;;;;11.72;70.25;100930.38;4974531;28;20062;-56
2023/01/08 03:52:30;;;;;;;2.15;0.75;;;;;;;11.89;70.13;100924.38;4974698;28;20395;-56
2023/01/08 03:54:56;;;;;;;1.65;0.80;;;;;;;11.80;69.58;100917.53;4974574;28;20027;-56
2023/01/08 03:57:23;;;;;;;2.35;0.90;;;;;;;11.85;70.01;100931.19;4974492;28;20038;-56
2023/01/08 03:59:50;;;;;;;1.02;0.65;;;;;;;11.81;70.07;100919.22;4974355;28;20027;-56
2023/01/08 04:02:16;;;;;;;1.30;0.50;;;;;;;11.86;69.32;100914.03;4974167;28;20030;-56
2023/01/08 04:04:42;;;;;;;1.90;0.98;;;;;;;11.99;68.98;100917.69;4974220;28;20031;-56
2023/01/08 04:07:11;;;;;;;0.65;0.50;;;;;;;12.03;68.20;100916.25;4974519;28;20031;-56
2023/01/08 04:09:38;;;;;;;2.40;0.70;;;;;;;12.10;67.68;100893.72;4974190;28;20491;-56
2023/01/08 04:12:05;;;;;;;2.08;0.50;;;;;;;12.10;67.71;100895.56;4973845;28;20042;-56
2023/01/08 04:14:31;;;;;;;0.85;0.50;;;;;;;12.16;67.11;100889.38;4974719;28;20380;-56
2023/01/08 04:16:57;;;;;;;2.53;0.75;;;;;;;12.16;66.79;100889.38;4974101;28;20022;-56
2023/01/08 04:19:23;;;;;;;4.53;1.00;;;;;;;12.23;65.72;100900.88;4973947;28;20046;-56
2023/01/08 04:21:51;;;;;;;1.27;0.57;;;;;;;12.25;65.84;100893.41;4973975;28;20033;-56
2023/01/08 04:24:18;;;;;;;1.48;0.63;;;;;;;12.22;66.02;100880.44;4973921;28;20490;-51
2023/01/08 04:26:44;;;;;;;2.72;0.82;;;;;;;12.26;64.95;100862.84;4973686;28;20035;-56
2023/01/08 04:29:12;;;;;;;1.73;0.65;;;;;;;12.33;64.69;100846.72;4973936;28;20027;-60
2023/01/08 04:31:38;;;;;;;4.03;1.00;;;;;;;12.31;64.99;100832.69;4973350;28;20026;-60
2023/01/08 04:34:07;;;;;;;1.88;0.63;;;;;;;12.33;64.20;100844.06;4973810;28;20061;-61
2023/01/08 04:36:33;;;;;;;2.65;0.73;;;;;;;12.31;65.20;100846.09;4973792;28;20035;-61
2023/01/08 04:38:59;;;;;;;1.75;1.05;;;;;;;12.36;64.45;100839.06;4973800;28;20066;-62
2023/01/08 04:41:25;;;;;;;3.10;0.75;;;;;;;12.39;64.31;100819.84;4973508;28;20062;-52
2023/01/08 04:43:52;;;;;;;1.90;0.50;;;;;;;12.48;65.31;100817.69;4973738;28;20114;-52
2023/01/08 04:46:18;;;;;;;1.75;0.90;;;;;;;12.37;66.90;100851.44;4973598;28;20523;-52
2023/01/08 04:48:44;;;;;;;3.33;0.90;;;;;;;12.27;69.47;100863.69;4973208;28;20042;-53
2023/01/08 04:51:10;;;;;;;3.90;1.02;;;;;;;11.86;73.77;100844.31;4973282;28;20027;-53
2023/01/08 04:53:39;;;;;;;3.15;0.90;;;;;;;11.53;76.92;100857.00;4973560;28;20471;-51
2023/01/08 04:56:07;;;;;;;6.07;1.35;;;;;;;11.45;78.34;100882.19;4973248;28;20039;-53
2023/01/08 04:58:35;;;;;;;3.90;0.70;;;;;;;11.29;80.91;100877.28;4973394;28;20083;-54
2023/01/08 05:01:10;;;;;;;3.42;1.00;;;;;;;11.11;82.09;100869.91;4973025;28;20033;-52
2023/01/08 05:03:37;;;;;;;2.50;0.77;;;;;;;11.12;81.99;100876.09;4973579;28;20395;-51
2023/01/08 05:06:03;;;;;;;2.63;0.73;;;;;;;11.15;81.69;100852.38;4973302;28;20019;-52
2023/01/08 05:08:29;;;;;;;3.03;0.88;;;;;;;11.17;81.93;100863.72;4973326;28;20031;-53
2023/01/08 05:10:58;;;;;;;2.47;0.98;;;;;;;11.06;82.34;100850.97;4973055;28;20030;-53
2023/01/08 05:13:25;;;;;;;4.15;1.23;;;;;;;10.93;82.06;100818.81;4973151;28;20447;-55
2023/01/08 05:15:51;;;;;;;1.65;0.70;;;;;;;11.01;80.96;100805.22;4973293;28;20082;-54
2023/01/08 05:18:17;;;;;;;3.33;1.10;;;;;;;11.07;79.35;100799.03;4973271;28;20117;-53
2023/01/08 05:20:43;;;;;;;2.58;1.17;;;;;;;11.00;79.85;100795.56;4984794;28;20026;-52
2023/01/08 05:23:10;;;;;;;2.22;0.90;;;;;;;11.05;79.79;100764.44;4992442;28;20041;-51
2023/01/08 05:25:36;;;;;;;1.60;0.82;;;;;;;11.12;79.80;100753.69;4992576;28;20030;-52
2023/01/08 05:28:03;;;;;;;1.92;1.45;;;;;;;11.11;79.55;100744.00;4992296;28;20050;-52
2023/01/08 05:30:29;;;;;;;2.97;0.77;;;;;;;11.04;79.06;100735.97;4992132;28;20062;-51
2023/01/08 05:32:55;;;;;;;2.47;0.80;;;;;;;11.09;79.73;100754.09;4992381;28;20087;-52
2023/01/08 05:35:22;;;;;;;4.68;1.00;;;;;;;11.23;78.02;100747.66;4992251;28;20042;-52
2023/01/08 05:37:48;;;;;;;2.80;0.88;;;;;;;11.22;76.85;100718.41;4992521;28;20467;-51
2023/01/08 05:40:14;;;;;;;3.63;1.15;;;;;;;11.29;76.42;100732.59;4991943;28;20440;-56
2023/01/08 05:42:40;;;;;;;1.92;0.85;;;;;;;11.46;75.53;100749.00;4992374;28;20041;-55
2023/01/08 05:45:07;;;;;;;3.22;0.90;;;;;;;11.52;75.22;100753.50;4992462;28;20031;-55
2023/01/08 05:47:34;;;;;;;3.40;0.73;;;;;;;11.54;74.33;100746.06;4992245;28;20476;-56
2023/01/08 05:50:00;;;;;;;1.90;0.60;;;;;;;11.58;73.81;100740.06;4992209;28;20030;-56
2023/01/08 05:52:27;;;;;;;4.97;0.88;;;;;;;11.67;73.49;100743.34;4992105;28;20487;-56
2023/01/08 05:54:53;;;;;;;2.03;0.70;;;;;;;11.75;73.16;100726.16;4992238;28;20390;-56
2023/01/08 05:57:19;;;;;;;3.13;0.75;;;;;;;11.76;73.47;100717.06;4992159;28;20498;-55
2023/01/08 05:59:46;;;;;;;1.23;0.63;;;;;;;11.82;73.18;100719.72;4993879;28;20183;-55
2023/01/08 06:02:12;;;;;;;6.78;1.25;;;;;;;11.82;72.94;100714.34;4995425;28;20081;-55
2023/01/08 06:04:38;;;;;;;1.15;0.57;;;;;;;11.90;73.12;100707.94;4995988;28;20026;-56
2023/01/08 06:07:04;;;;;;;0.70;0.60;;;;;;;11.95;73.43;100712.66;4996138;28;20092;-56
2023/01/08 06:09:31;;;;;;;2.35;0.70;;;;;;;11.88;73.00;100718.03;4995826;28;20110;-56
2023/01/08 06:11:57;;;;;;;1.30;0.70;;;;;;;11.94;73.28;100710.97;4995605;28;20093;-56
2023/01/08 06:14:23;;;;;;;2.42;0.80;;;;;;;12.01;73.59;100703.72;4995959;28;20076;-56
2023/01/08 06:16:50;;;;;;;4.28;1.00;;;;;;;12.02;73.18;100689.25;4995869;28;20033;-56
2023/01/08 06:19:17;;;;;;;2.63;0.90;;;;;;;12.09;73.51;100695.38;4995101;28;20031;-56
2023/01/08 06:21:44;;;;;;;1.33;0.65;;;;;;;12.12;72.59;100689.59;4976132;28;20558;-56
2023/01/08 06:24:10;;;;;;;1.17;0.70;;;;;;;12.24;72.26;100682.47;4976296;28;20427;-56
2023/01/08 06:26:37;;;;;;;1.80;0.57;;;;;;;12.31;71.96;100695.81;4975964;28;20394;-55
2023/01/08 06:29:03;;;;;;;1.83;0.52;;;;;;;12.32;71.70;100668.75;4976617;28;20042;-55
2023/01/08 06:31:30;;;;;;;2.75;0.73;;;;;;;12.24;71.70;100661.00;4975681;28;20026;-56
2023/01/08 06:33:56;;;;;;;1.50;0.50;;;;;;;12.38;71.39;100675.94;4976556;28;20102;-56
2023/01/08 06:36:22;;;;;;;3.85;0.65;;;;;;;12.41;71.43;100670.09;4975973;28;20034;-56
2023/01/08 06:38:48;;;;;;;1.85;0.82;;;;;;;12.33;71.84;100677.66;4975984;28;20069;-56
2023/01/08 06:41:15;;;;;;;1.42;0.60;;;;;;;12.38;71.72;100661.66;4975686;28;20043;-56
2023/01/08 06:43:41;;;;;;;2.90;0.73;;;;;;;12.38;72.17;100657.16;4976012;28;20381;-56
2023/01/08 06:46:08;;;;;;;1.75;0.60;;;;;;;12.37;72.09;100634.00;4975855;28;20033;-56
2023/01/08 06:48:35;;;;;;;1.40;0.30;;;;;;;12.40;72.29;100605.91;4975879;28;20030;-55
2023/01/08 06:51:03;;;;;;;2.92;1.05;;;;;;;12.37;72.17;100571.47;4975437;28;20031;-56
2023/01/08 06:53:29;;;;;;;2.45;0.77;;;;;;;12.28;73.05;100595.13;4975575;28;20019;-55
2023/01/08 06:55:57;;;;;;;1.83;0.82;;;;;;;12.33;73.87;100600.63;4975782;28;20026;-56
2023/01/08 06:58:25;;;;;;;3.00;0.65;;;;;;;12.18;75.22;100586.75;4975582;28;20102;-55
2023/01/08 07:00:52;;;;;;;1.80;0.55;;;;;;;12.23;76.20;100578.84;4975501;28;20030;-56
2023/01/08 07:03:18;;;;;;;1.70;0.70;;;;;;;12.19;75.99;100585.69;4975551;28;20061;-55
2023/01/08 07:05:44;;;;;;;2.58;0.60;;;;;;;12.20;76.62;100568.56;4975504;28;20031;-56
2023/01/08 07:08:13;;;;;;;0.77;0.47;;;;;;;12.15;76.04;100552.31;4975765;28;20448;-56
2023/01/08 07:10:40;;;;;;;3.05;0.43;;;;;;;12.16;76.01;100535.19;4974867;28;20027;-55
2023/01/08 07:13:09;;;;;;;0.75;0.57;;;;;;;12.18;76.06;100538.47;4975187;28;20483;-56
2023/01/08 07:15:36;;;;;;;1.00;0.60;;;;;;;12.23;75.97;100514.47;4975338;28;20054;-56
2023/01/08 07:18:07;;;;;;;2.67;0.60;;;;;;;12.21;75.49;100505.78;4975329;28;20102;-55
2023/01/08 07:20:34;;;;;;;0.95;0.43;;;;;;;12.25;75.75;100531.13;4985796;28;20471;-56
2023/01/08 07:23:02;;;;;;;5.18;0.40;;;;;;;12.24;75.56;100494.63;4994565;28;20198;-56
2023/01/08 07:25:28;;;;;;;1.88;0.45;;;;;;;12.24;75.94;100508.03;4994529;28;20030;-55
2023/01/08 07:27:54;;;;;;;0.70;0.40;;;;;;;12.26;75.67;100481.78;4994290;28;20399;-56
2023/01/08 07:30:20;;;;;;;1.65;0.50;;;;;;;12.33;76.11;100525.50;4994387;28;20027;-56
2023/01/08 07:32:46;;;;;;;2.17;0.43;;;;;;;12.28;76.70;100562.09;4994355;28;20045;-56
2023/01/08 07:35:13;;;;;;;0.80;0.40;;;;;;;12.28;77.40;100584.38;4994305;28;20065;-55
2023/01/08 07:37:40;;;;;;;2.80;0.70;;;;;;;12.23;79.57;100594.97;4994206;28;20030;-56
2023/01/08 07:40:08;;;;;;;4.18;0.50;;;;;;;12.10;81.38;100595.06;4994015;28;20460;-56
2023/01/08 07:42:34;;;;;;;3.95;0.70;;;;;;;12.02;82.40;100587.34;4994198;28;20085;-56
2023/01/08 07:45:00;;;;;;;3.20;0.57;;;;;;;11.80;85.06;100590.38;4994117;28;20459;-56
2023/01/08 07:47:26;;;;;;;2.30;0.75;;;;;;;11.58;87.47;100618.63;4994060;28;20069;-57
2023/01/08 07:49:53;;;;;;;1.25;0.60;;;;;;;11.58;88.18;100591.81;4993904;28;20073;-57
2023/01/08 07:52:19;;;;;;;2.83;1.38;;;;;;;11.49;88.20;100622.59;4994265;28;20034;-56
2023/01/08 07:54:45;;;;;;;3.03;0.80;;;;;;;11.32;89.80;100612.41;4993927;28;20026;-56
2023/01/08 07:57:11;;;;;;;2.25;0.70;;;;;;;11.30;90.50;100614.47;4993885;28;20105;-56
2023/01/08 07:59:38;;;;;;;1.52;0.73;;;;;;;11.22;91.44;100609.41;4993947;28;20037;-57
2023/01/08 08:02:04;;;;;;;2.30;0.70;;;;;;;11.23;91.69;100663.78;4993480;28;20113;-57
2023/01/08 08:04:30;;;;;;;2.13;0.70;;;;;;;11.12;92.86;100681.38;4994145;28;20053;-56
2023/01/08 08:06:57;;;;;;;2.50;1.08;;;;;;;11.14;92.82;100690.00;4994060;28;20477;-57
2023/01/08 08:09:23;;;;;;;3.58;0.90;;;;;;;11.09;93.07;100717.41;4993483;28;20031;-57
2023/01/08 08:11:49;;;;;;;2.63;0.70;;;;;;;11.12;93.20;100740.28;4993378;28;20027;-57
2023/01/08 08:14:15;;;;;;;7.80;1.45;;;;;;;11.07;93.95;100773.06;4993639;28;20022;-56
2023/01/08 08:16:42;;;;;;;11.70;1.48;;;;;;;10.99;94.96;100777.81;4993693;28;20026;-57
2023/01/08 08:19:09;;;;;;;9.27;1.90;;;;;;;11.02;95.31;100777.41;4993450;28;20508;-56
2023/01/08 08:21:36;;;;;;;11.25;1.73;;;;;;;11.04;95.48;100804.78;4973192;28;20061;-56
2023/01/08 08:24:02;;;;;;;6.80;1.85;;;;;;;11.01;95.94;100823.97;4973596;28;20033;-57
2023/01/08 08:26:28;;;;;;;5.82;1.30;;;;;;;10.97;96.46;100834.28;4974211;28;20097;-56
2023/01/08 08:28:55;;;;;;;6.03;1.38;;;;;;;11.08;96.53;100876.50;4973614;28;20054;-57
2023/01/08 08:31:21;;;;;;;7.10;1.80;;;;;;;10.99;97.15;100876.91;4973723;28;20124;-57
2023/01/08 08:33:47;;;;;;;8.43;2.28;;;;;;;11.09;96.86;100909.47;4973627;28;20161;-56
2023/01/08 08:36:13;;;;;;;15.02;2.30;;;;;;;10.99;97.13;100896.50;4973886;28;20034;-57
2023/01/08 08:38:40;;;;;;;10.30;2.75;;;;;;;11.07;96.46;100908.84;4973834;28;20035;-56
2023/01/08 08:41:06;;;;;;;9.50;1.80;;;;;;;11.07;96.16;100885.56;4973391;28;20089;-57
2023/01/08 08:43:32;;;;;;;12.85;1.88;;;;;;;11.01;95.99;100913.19;4973648;28;20035;-56
2023/01/08 08:45:58;;;;;;;8.82;1.63;;;;;;;11.14;95.45;100922.25;4973718;28;20031;-56
2023/01/08 08:48:25;;;;;;;11.13;1.98;;;;;;;11.00;96.08;100900.84;4973711;28;20042;-56
2023/01/08 08:50:52;;;;;;;9.40;2.00;;;;;;;11.12;96.09;100914.41;4973204;28;20403;-56
2023/01/08 08:53:18;;;;;;;8.93;1.63;;;;;;;11.18;95.96;100921.63;4973417;28;20030;-57
2023/01/08 08:55:44;;;;;;;14.65;2.30;;;;;;;11.20;96.05;100906.16;4973398;28;20480;-56
2023/01/08 08:58:12;;;;;;;11.68;2.08;;;;;;;11.26;96.30;100896.44;4973229;28;20133;-56
2023/01/08 09:00:40;;;;;;;12.45;1.85;;;;;;;11.37;95.80;100891.28;4973346;28;20361;-56
2023/01/08 09:03:06;;;;;;;10.82;1.75;;;;;;;11.32;95.88;100885.72;4973068;28;20394;-56
2023/01/08 09:05:36;;;;;;;6.72;1.70;;;;;;;11.43;95.27;100899.50;4973229;28;20030;-56
2023/01/08 09:08:02;;;;;;;6.63;1.98;;;;;;;11.48;94.96;100913.94;4973282;28;20467;-56
2023/01/08 09:10:28;;;;;;;14.23;1.17;;;;;;;11.46;95.13;100918.69;4973218;28;20058;-56
2023/01/08 09:12:54;;;;;;;6.63;2.00;;;;;;;11.47;95.09;100911.47;4973234;28;20078;-56
2023/01/08 09:15:21;;;;;;;7.22;1.70;;;;;;;11.51;95.05;100912.69;4973106;28;20027;-56
2023/01/08 09:17:57;;;;;;;14.60;2.72;;;;;;;11.60;94.84;100912.28;4973403;28;20031;-56
2023/01/08 09:20:25;;;;;;;14.27;3.88;;;;;;;11.86;94.62;100921.28;4984340;28;20371;-55
2023/01/08 09:22:52;;;;;;;26.13;4.95;;;;;;;11.98;94.13;100930.28;4992169;28;20037;-56
2023/01/08 09:25:18;;;;;;;20.52;3.85;;;;;;;12.17;93.33;100931.25;4992255;28;20026;-56
2023/01/08 09:27:44;;;;;;;18.55;4.13;;;;;;;12.27;92.94;100938.81;4992366;28;20058;-56
2023/01/08 09:30:11;;;;;;;24.48;5.18;;;;;;;12.39;92.49;100940.63;4992219;28;20501;-56
2023/01/08 09:32:37;;;;;;;23.55;4.18;;;;;;;12.53;92.05;100933.31;4992414;28;20097;-56
2023/01/08 09:35:05;;;;;;;19.17;5.20;;;;;;;12.60;91.89;100933.25;4998695;28;20049;-56
2023/01/08 09:37:31;;;;;;;18.00;4.78;;;;;;;12.70;91.46;100941.66;4998743;28;20037;-56
2023/01/08 09:39:57;;;;;;;34.97;5.55;;;;;;;12.81;91.59;100943.66;5042574;23;20567;-56
2023/01/08 09:42:26;;;;;;;33.67;6.20;;;;;;;12.86;91.90;100943.00;5037573;28;20030;-56
2023/01/08 09:44:57;;;;;;;28.27;6.18;;;;;;;12.92;91.94;100951.00;5038194;28;20033;-56
2023/01/08 09:47:36;;;;;;;30.90;6.90;;;;;;;12.96;92.26;100959.44;5038308;28;20037;-56
2023/01/08 09:50:06;;;;;;;25.88;5.85;;;;;;;13.05;91.94;100955.47;5038196;28;20033;-56
2023/01/08 09:52:33;;;;;;;27.63;5.82;;;;;;;13.00;92.17;100966.03;5038129;28;20040;-56
2023/01/08 09:55:00;;;;;;;29.15;6.78;;;;;;;13.07;91.67;100982.09;5038239;28;20112;-56
2023/01/08 09:57:28;;;;;;;29.38;6.20;;;;;;;13.04;91.71;100986.03;5038419;28;20022;-56
2023/01/08 09:59:54;;;;;;;40.47;7.22;;;;;;;13.07;91.31;100992.84;5037792;28;20029;-56
2023/01/08 10:02:23;;;;;;;33.05;6.47;;;;;;;13.05;91.16;100994.94;5038091;28;20028;-56
2023/01/08 10:04:56;;;;;;;34.05;7.75;;;;;;;13.05;90.41;100994.94;5023956;28;20022;-56
2023/01/08 10:07:24;;;;;;;33.80;6.65;;;;;;;13.07;89.72;101011.66;5018485;28;20029;-56
2023/01/08 10:09:52;;;;;;;29.98;6.65;;;;;;;13.06;89.98;101007.34;5017700;28;20303;-57
2023/01/08 10:12:29;;;;;;;39.00;7.63;;;;;;;13.03;89.84;101027.38;5017994;28;20029;-56
2023/01/08 10:15:04;;;;;;;30.08;7.03;;;;;;;13.04;90.16;101033.59;5018125;28;20026;-55
2023/01/08 10:17:44;;;;;;;30.30;7.85;;;;;;;13.02;89.89;101033.00;5018077;28;20037;-56
2023/01/08 10:20:17;;;;;;;28.83;6.25;;;;;;;12.98;90.19;101032.59;5017963;28;20076;-56
2023/01/08 10:22:43;;;;;;;33.58;7.43;;;;;;;13.06;89.83;101037.72;5017719;28;20421;-56
2023/01/08 10:25:12;;;;;;;39.45;7.95;;;;;;;13.05;89.60;101038.75;5017905;28;20042;-56
2023/01/08 10:27:52;;;;;;;32.25;7.47;;;;;;;13.06;90.05;101039.59;5017758;28;20022;-56
2023/01/08 10:30:32;;;;;;;29.83;7.28;;;;;;;13.00;90.48;101045.84;5017911;28;20483;-56
2023/01/08 10:33:06;;;;;;;34.33;7.70;;;;;;;13.02;90.57;101046.44;5018361;28;20430;-56
2023/01/08 10:35:38;;;;;;;48.03;9.38;;;;;;;13.00;90.83;101052.03;5017890;28;20026;-56
2023/01/08 10:38:04;;;;;;;37.95;7.05;;;;;;;13.06;90.65;101055.72;5017809;28;20048;-56
2023/01/08 10:40:33;;;;;;;33.90;7.80;;;;;;;13.07;90.96;101043.91;5017648;28;20033;-56
2023/01/08 10:43:14;;;;;;;36.40;8.23;;;;;;;13.12;90.81;101055.66;5018093;28;20487;-56
2023/01/08 10:45:42;;;;;;;35.65;7.53;;;;;;;13.22;90.23;101049.03;5015332;28;20029;-56
2023/01/08 10:48:17;;;;;;;35.33;7.07;;;;;;;13.13;90.46;101064.53;5014819;28;20135;-56
2023/01/08 10:50:43;;;;;;;40.80;8.77;;;;;;;13.17;90.72;101063.91;5014515;28;20537;-56
2023/01/08 10:53:28;;;;;;;36.15;8.18;;;;;;;13.11;90.63;101064.78;5014913;28;20080;-56
2023/01/08 10:56:02;;;;;;;40.33;8.05;;;;;;;13.18;90.21;101065.53;5014437;28;20026;-55
2023/01/08 10:58:30;;;;;;;55.65;11.80;;;;;;;13.21;90.14;101080.41;5014495;28;20026;-56
2023/01/08 11:01:15;;;;;;;40.15;8.05;;;;;;;13.22;89.78;101084.78;5014407;28;20034;-56
2023/01/08 11:03:41;;;;;;;49.25;8.40;;;;;;;13.23;89.54;101082.91;5014652;28;20022;-55
2023/01/08 11:06:21;;;;;;;44.85;8.23;;;;;;;13.16;89.45;101093.69;5014490;28;20034;-55
2023/01/08 11:08:52;;;;;;;33.95;7.53;;;;;;;13.16;87.44;101091.81;5014317;28;20414;-56
2023/01/08 11:11:19;;;;;;;31.33;8.05;;;;;;;13.23;87.14;101091.81;5013800;28;20022;-56
2023/01/08 11:14:25;;;;;;;35.95;7.68;;;;;;;13.19;87.88;101104.81;5014254;28;20033;-56
2023/01/08 11:16:53;;;;;;;33.28;7.32;;;;;;;13.25;86.50;101105.84;5014417;28;20026;-56
2023/01/08 11:19:28;;;;;;;38.97;7.38;;;;;;;13.24;85.37;101114.94;5014342;28;20760;-56
2023/01/08 11:22:24;;;;;;;39.38;7.05;;;;;;;13.25;84.61;101119.28;5014047;28;20043;-56
2023/01/08 11:24:52;;;;;;;36.75;7.00;;;;;;;13.29;84.96;101131.25;5013664;28;20045;-55
2023/01/08 11:27:28;;;;;;;32.67;7.20;;;;;;;13.32;85.23;101132.66;5014044;28;20033;-56
2023/01/08 11:30:07;;;;;;;40.53;7.70;;;;;;;13.37;85.41;101133.66;5013846;28;20129;-56
2023/01/08 11:32:53;;;;;;;30.60;6.78;;;;;;;13.34;84.47;101123.38;5013988;28;20030;-56
2023/01/08 11:35:25;;;;;;;35.00;7.75;;;;;;;13.34;84.07;101122.53;5014342;28;20075;-56